sensor_id;sensor_type;location;lat;lon;timestamp;P1;durP1;ratioP1;P2;durP2;ratioP2
53513;SDS011;39768;54.148;12.174;2022-10-04T00:06:22;2.70;;;0.65;;
53513;SDS011;39768;54.148;12.174;2022-10-04T00:10:28;4.25;;;0.52;;
53513;SDS011;39768;54.148;12.174;2022-10-04T00:14:36;5.38;;;0.77;;
53513;SDS011;39768;54.148;12.174;2022-10-04T00:18:40;0.50;;;0.50;;
53513;SDS011;39768;54.148;12.174;2022-10-04T00:23:23;2.33;;;0.82;;
53513;SDS011;39768;54.148;12.174;2022-10-04T00:27:25;2.33;;;0.50;;
53513;SDS011;39768;54.148;12.174;2022-10-04T00:31:28;1.27;;;0.40;;
53513;SDS011;39768;54.148;12.174;2022-10-04T00:43:36;0.90;;;0.35;;
53513;SDS011;39768;54.148;12.174;2022-10-04T00:56:27;1.08;;;0.40;;
53513;SDS011;39768;54.148;12.174;2022-10-04T01:00:33;3.45;;;0.60;;
53513;SDS011;39768;54.148;12.174;2022-10-04T01:08:55;0.38;;;0.30;;
53513;SDS011;39768;54.148;12.174;2022-10-04T01:13:16;0.20;;;0.20;;
53513;SDS011;39768;54.148;12.174;2022-10-04T01:17:20;2.25;;;0.65;;
53513;SDS011;39768;54.148;12.174;2022-10-04T01:21:24;7.28;;;0.50;;
53513;SDS011;39768;54.148;12.174;2022-10-04T01:25:44;3.38;;;0.50;;
53513;SDS011;39768;54.148;12.174;2022-10-04T01:29:48;0.40;;;0.40;;
53513;SDS011;39768;54.148;12.174;2022-10-04T01:33:52;2.45;;;0.75;;
53513;SDS011;39768;54.148;12.174;2022-10-04T01:37:55;3.80;;;0.47;;
53513;SDS011;39768;54.148;12.174;2022-10-04T01:46:22;1.58;;;0.32;;
53513;SDS011;39768;54.148;12.174;2022-10-04T01:50:32;6.70;;;0.47;;
53513;SDS011;39768;54.148;12.174;2022-10-04T01:54:42;3.00;;;0.43;;
53513;SDS011;39768;54.148;12.174;2022-10-04T01:58:47;3.00;;;0.63;;
53513;SDS011;39768;54.148;12.174;2022-10-04T02:07:20;2.03;;;0.30;;
53513;SDS011;39768;54.148;12.174;2022-10-04T02:11:23;3.47;;;0.77;;
53513;SDS011;39768;54.148;12.174;2022-10-04T02:15:29;0.73;;;0.50;;
53513;SDS011;39768;54.148;12.174;2022-10-04T02:19:33;3.65;;;0.50;;
53513;SDS011;39768;54.148;12.174;2022-10-04T02:23:36;1.65;;;0.30;;
53513;SDS011;39768;54.148;12.174;2022-10-04T02:27:41;1.98;;;0.47;;
53513;SDS011;39768;54.148;12.174;2022-10-04T02:31:42;2.15;;;0.38;;
53513;SDS011;39768;54.148;12.174;2022-10-04T02:36:03;1.85;;;0.50;;
53513;SDS011;39768;54.148;12.174;2022-10-04T02:40:12;8.25;;;0.70;;
53513;SDS011;39768;54.148;12.174;2022-10-04T02:44:22;0.73;;;0.57;;
53513;SDS011;39768;54.148;12.174;2022-10-04T02:48:33;0.70;;;0.57;;
53513;SDS011;39768;54.148;12.174;2022-10-04T02:52:44;6.75;;;0.52;;
53513;SDS011;39768;54.148;12.174;2022-10-04T02:56:50;0.80;;;0.35;;
53513;SDS011;39768;54.148;12.174;2022-10-04T03:00:56;0.45;;;0.45;;
53513;SDS011;39768;54.148;12.174;2022-10-04T03:05:04;0.77;;;0.45;;
53513;SDS011;39768;54.148;12.174;2022-10-04T03:09:08;0.67;;;0.40;;
53513;SDS011;39768;54.148;12.174;2022-10-04T03:13:10;1.83;;;0.45;;
53513;SDS011;39768;54.148;12.174;2022-10-04T03:17:16;0.68;;;0.50;;
53513;SDS011;39768;54.148;12.174;2022-10-04T03:21:18;4.55;;;0.63;;
53513;SDS011;39768;54.148;12.174;2022-10-04T03:25:23;2.58;;;0.63;;
53513;SDS011;39768;54.148;12.174;2022-10-04T03:29:30;0.45;;;0.45;;
53513;SDS011;39768;54.148;12.174;2022-10-04T03:33:34;6.60;;;0.82;;
53513;SDS011;39768;54.148;12.174;2022-10-04T03:37:36;0.30;;;0.30;;
53513;SDS011;39768;54.148;12.174;2022-10-04T03:41:38;6.38;;;0.57;;
53513;SDS011;39768;54.148;12.174;2022-10-04T03:45:41;6.25;;;0.47;;
53513;SDS011;39768;54.148;12.174;2022-10-04T03:49:43;1.70;;;0.45;;
53513;SDS011;39768;54.148;12.174;2022-10-04T03:54:00;0.57;;;0.47;;
53513;SDS011;39768;54.148;12.174;2022-10-04T03:58:03;5.35;;;0.82;;
53513;SDS011;39768;54.148;12.174;2022-10-04T04:02:09;0.90;;;0.47;;
53513;SDS011;39768;54.148;12.174;2022-10-04T04:06:18;0.60;;;0.45;;
53513;SDS011;39768;54.148;12.174;2022-10-04T04:10:22;0.70;;;0.65;;
53513;SDS011;39768;54.148;12.174;2022-10-04T04:14:33;8.57;;;0.65;;
53513;SDS011;39768;54.148;12.174;2022-10-04T04:18:36;2.47;;;0.45;;
53513;SDS011;39768;54.148;12.174;2022-10-04T04:22:42;2.22;;;0.45;;
53513;SDS011;39768;54.148;12.174;2022-10-04T04:26:48;4.65;;;0.73;;
53513;SDS011;39768;54.148;12.174;2022-10-04T04:30:57;0.47;;;0.47;;
53513;SDS011;39768;54.148;12.174;2022-10-04T04:35:16;8.95;;;0.55;;
53513;SDS011;39768;54.148;12.174;2022-10-04T04:39:23;0.50;;;0.47;;
53513;SDS011;39768;54.148;12.174;2022-10-04T04:43:44;3.60;;;0.65;;
53513;SDS011;39768;54.148;12.174;2022-10-04T04:47:46;6.47;;;0.80;;
53513;SDS011;39768;54.148;12.174;2022-10-04T04:51:51;0.50;;;0.47;;
53513;SDS011;39768;54.148;12.174;2022-10-04T04:55:59;5.72;;;0.55;;
53513;SDS011;39768;54.148;12.174;2022-10-04T05:00:05;4.13;;;0.73;;
53513;SDS011;39768;54.148;12.174;2022-10-04T05:12:20;0.85;;;0.70;;
53513;SDS011;39768;54.148;12.174;2022-10-04T05:20:48;5.30;;;1.20;;
53513;SDS011;39768;54.148;12.174;2022-10-04T05:24:54;1.30;;;1.10;;
53513;SDS011;39768;54.148;12.174;2022-10-04T05:29:01;1.83;;;1.30;;
53513;SDS011;39768;54.148;12.174;2022-10-04T05:33:12;6.22;;;1.05;;
53513;SDS011;39768;54.148;12.174;2022-10-04T05:37:20;7.68;;;1.75;;
53513;SDS011;39768;54.148;12.174;2022-10-04T05:45:36;1.75;;;1.08;;
53513;SDS011;39768;54.148;12.174;2022-10-04T05:49:41;5.15;;;1.02;;
53513;SDS011;39768;54.148;12.174;2022-10-04T05:53:46;3.90;;;1.42;;
53513;SDS011;39768;54.148;12.174;2022-10-04T06:02:32;3.40;;;1.52;;
53513;SDS011;39768;54.148;12.174;2022-10-04T06:06:49;1.30;;;1.13;;
53513;SDS011;39768;54.148;12.174;2022-10-04T06:11:14;1.13;;;0.80;;
53513;SDS011;39768;54.148;12.174;2022-10-04T06:15:47;0.80;;;0.77;;
53513;SDS011;39768;54.148;12.174;2022-10-04T06:24:16;2.88;;;1.05;;
53513;SDS011;39768;54.148;12.174;2022-10-04T06:28:30;1.63;;;0.65;;
53513;SDS011;39768;54.148;12.174;2022-10-04T06:37:04;1.92;;;1.00;;
53513;SDS011;39768;54.148;12.174;2022-10-04T06:41:29;0.63;;;0.60;;
53513;SDS011;39768;54.148;12.174;2022-10-04T06:50:18;1.38;;;1.15;;
53513;SDS011;39768;54.148;12.174;2022-10-04T07:03:08;4.55;;;1.05;;
53513;SDS011;39768;54.148;12.174;2022-10-04T07:11:46;6.45;;;1.20;;
53513;SDS011;39768;54.148;12.174;2022-10-04T07:16:00;3.30;;;1.23;;
53513;SDS011;39768;54.148;12.174;2022-10-04T07:20:27;4.72;;;1.15;;
53513;SDS011;39768;54.148;12.174;2022-10-04T07:29:00;2.95;;;0.95;;
53513;SDS011;39768;54.148;12.174;2022-10-04T07:33:22;1.42;;;1.02;;
53513;SDS011;39768;54.148;12.174;2022-10-04T07:37:28;1.13;;;1.02;;
53513;SDS011;39768;54.148;12.174;2022-10-04T07:41:34;1.77;;;1.08;;
53513;SDS011;39768;54.148;12.174;2022-10-04T07:45:50;3.45;;;1.35;;
53513;SDS011;39768;54.148;12.174;2022-10-04T07:49:54;2.00;;;1.35;;
53513;SDS011;39768;54.148;12.174;2022-10-04T07:54:12;1.42;;;1.02;;
53513;SDS011;39768;54.148;12.174;2022-10-04T08:03:03;2.60;;;1.33;;
53513;SDS011;39768;54.148;12.174;2022-10-04T08:07:29;5.28;;;1.58;;
53513;SDS011;39768;54.148;12.174;2022-10-04T08:11:53;2.08;;;1.48;;
53513;SDS011;39768;54.148;12.174;2022-10-04T08:16:03;10.68;;;1.95;;
53513;SDS011;39768;54.148;12.174;2022-10-04T08:37:39;4.05;;;1.30;;
53513;SDS011;39768;54.148;12.174;2022-10-04T08:42:05;4.43;;;1.80;;
53513;SDS011;39768;54.148;12.174;2022-10-04T08:46:52;2.92;;;1.48;;
53513;SDS011;39768;54.148;12.174;2022-10-04T08:51:25;9.27;;;2.40;;
53513;SDS011;39768;54.148;12.174;2022-10-04T08:56:04;6.20;;;1.95;;
53513;SDS011;39768;54.148;12.174;2022-10-04T09:00:18;2.53;;;2.03;;
53513;SDS011;39768;54.148;12.174;2022-10-04T09:13:29;5.60;;;2.88;;
53513;SDS011;39768;54.148;12.174;2022-10-04T09:17:44;10.32;;;2.60;;
53513;SDS011;39768;54.148;12.174;2022-10-04T09:22:04;18.90;;;3.03;;
53513;SDS011;39768;54.148;12.174;2022-10-04T09:26:21;8.70;;;2.65;;
53513;SDS011;39768;54.148;12.174;2022-10-04T09:30:43;5.90;;;2.72;;
53513;SDS011;39768;54.148;12.174;2022-10-04T10:09:50;5.15;;;1.63;;
53513;SDS011;39768;54.148;12.174;2022-10-04T10:14:56;2.38;;;0.95;;
53513;SDS011;39768;54.148;12.174;2022-10-04T10:19:28;5.90;;;1.88;;
53513;SDS011;39768;54.148;12.174;2022-10-04T10:23:42;1.67;;;1.35;;
53513;SDS011;39768;54.148;12.174;2022-10-04T10:28:24;1.07;;;0.87;;
53513;SDS011;39768;54.148;12.174;2022-10-04T10:46:01;2.03;;;1.17;;
53513;SDS011;39768;54.148;12.174;2022-10-04T11:03:33;1.10;;;0.70;;
53513;SDS011;39768;54.148;12.174;2022-10-04T11:12:25;1.13;;;1.02;;
53513;SDS011;39768;54.148;12.174;2022-10-04T11:25:26;0.63;;;0.63;;
53513;SDS011;39768;54.148;12.174;2022-10-04T11:29:55;1.30;;;0.93;;
53513;SDS011;39768;54.148;12.174;2022-10-04T11:34:10;0.88;;;0.65;;
53513;SDS011;39768;54.148;12.174;2022-10-04T11:52:22;7.40;;;1.13;;
53513;SDS011;39768;54.148;12.174;2022-10-04T12:00:46;1.13;;;0.85;;
53513;SDS011;39768;54.148;12.174;2022-10-04T12:23:35;9.98;;;0.75;;
53513;SDS011;39768;54.148;12.174;2022-10-04T12:28:03;3.00;;;0.90;;
53513;SDS011;39768;54.148;12.174;2022-10-04T12:32:18;7.07;;;0.73;;
53513;SDS011;39768;54.148;12.174;2022-10-04T12:36:30;4.82;;;0.93;;
53513;SDS011;39768;54.148;12.174;2022-10-04T12:40:45;0.85;;;0.60;;
53513;SDS011;39768;54.148;12.174;2022-10-04T12:44:56;1.40;;;0.90;;
53513;SDS011;39768;54.148;12.174;2022-10-04T12:49:15;2.85;;;0.65;;
53513;SDS011;39768;54.148;12.174;2022-10-04T12:53:34;2.22;;;0.90;;
53513;SDS011;39768;54.148;12.174;2022-10-04T13:15:22;0.77;;;0.75;;
53513;SDS011;39768;54.148;12.174;2022-10-04T13:24:36;0.90;;;0.90;;
53513;SDS011;39768;54.148;12.174;2022-10-04T13:37:50;5.03;;;1.55;;
53513;SDS011;39768;54.148;12.174;2022-10-04T13:42:21;4.50;;;1.58;;
53513;SDS011;39768;54.148;12.174;2022-10-04T13:51:25;1.88;;;1.40;;
53513;SDS011;39768;54.148;12.174;2022-10-04T13:56:18;1.27;;;1.17;;
53513;SDS011;39768;54.148;12.174;2022-10-04T14:00:48;1.30;;;1.13;;
53513;SDS011;39768;54.148;12.174;2022-10-04T14:09:20;2.88;;;1.17;;
53513;SDS011;39768;54.148;12.174;2022-10-04T14:17:52;5.00;;;1.20;;
53513;SDS011;39768;54.148;12.174;2022-10-04T14:27:23;0.90;;;0.90;;
53513;SDS011;39768;54.148;12.174;2022-10-04T14:53:15;1.35;;;1.00;;
53513;SDS011;39768;54.148;12.174;2022-10-04T14:57:46;1.35;;;0.95;;
53513;SDS011;39768;54.148;12.174;2022-10-04T15:10:52;6.78;;;1.30;;
53513;SDS011;39768;54.148;12.174;2022-10-04T15:27:37;2.45;;;1.00;;
53513;SDS011;39768;54.148;12.174;2022-10-04T15:32:04;3.63;;;1.27;;
53513;SDS011;39768;54.148;12.174;2022-10-04T15:49:50;1.05;;;0.90;;
53513;SDS011;39768;54.148;12.174;2022-10-04T15:54:06;7.50;;;1.10;;
53513;SDS011;39768;54.148;12.174;2022-10-04T16:20:49;3.55;;;1.25;;
53513;SDS011;39768;54.148;12.174;2022-10-04T16:24:56;1.35;;;1.15;;
53513;SDS011;39768;54.148;12.174;2022-10-04T16:29:14;4.95;;;0.82;;
53513;SDS011;39768;54.148;12.174;2022-10-04T16:41:58;2.78;;;1.25;;
53513;SDS011;39768;54.148;12.174;2022-10-04T16:46:17;8.02;;;1.65;;
53513;SDS011;39768;54.148;12.174;2022-10-04T16:55:21;2.05;;;1.40;;
53513;SDS011;39768;54.148;12.174;2022-10-04T16:59:42;1.45;;;1.33;;
53513;SDS011;39768;54.148;12.174;2022-10-04T17:12:20;2.28;;;1.27;;
53513;SDS011;39768;54.148;12.174;2022-10-04T17:16:46;5.22;;;1.80;;
53513;SDS011;39768;54.148;12.174;2022-10-04T17:21:03;3.35;;;1.58;;
53513;SDS011;39768;54.148;12.174;2022-10-04T17:29:46;1.63;;;1.52;;
53513;SDS011;39768;54.148;12.174;2022-10-04T17:34:11;3.22;;;1.77;;
53513;SDS011;39768;54.148;12.174;2022-10-04T17:38:42;1.67;;;1.58;;
53513;SDS011;39768;54.148;12.174;2022-10-04T17:55:58;1.58;;;1.48;;
53513;SDS011;39768;54.148;12.174;2022-10-04T18:04:18;5.22;;;1.73;;
53513;SDS011;39768;54.148;12.174;2022-10-04T18:08:39;2.22;;;2.03;;
53513;SDS011;39768;54.148;12.174;2022-10-04T18:12:50;1.85;;;1.75;;
53513;SDS011;39768;54.148;12.174;2022-10-04T18:21:19;1.60;;;1.50;;
53513;SDS011;39768;54.148;12.174;2022-10-04T18:25:23;1.92;;;1.30;;
53513;SDS011;39768;54.148;12.174;2022-10-04T18:29:37;1.90;;;1.40;;
53513;SDS011;39768;54.148;12.174;2022-10-04T18:37:41;2.38;;;1.05;;
53513;SDS011;39768;54.148;12.174;2022-10-04T18:41:43;1.48;;;1.10;;
53513;SDS011;39768;54.148;12.174;2022-10-04T18:59:09;1.75;;;1.65;;
53513;SDS011;39768;54.148;12.174;2022-10-04T19:03:59;1.90;;;1.35;;
53513;SDS011;39768;54.148;12.174;2022-10-04T19:08:11;2.90;;;2.00;;
53513;SDS011;39768;54.148;12.174;2022-10-04T19:17:16;6.60;;;1.42;;
53513;SDS011;39768;54.148;12.174;2022-10-04T19:21:31;5.15;;;1.73;;
53513;SDS011;39768;54.148;12.174;2022-10-04T19:25:48;2.90;;;1.33;;
53513;SDS011;39768;54.148;12.174;2022-10-04T19:30:17;8.85;;;1.67;;
53513;SDS011;39768;54.148;12.174;2022-10-04T19:48:10;1.23;;;1.13;;
53513;SDS011;39768;54.148;12.174;2022-10-04T19:52:29;10.75;;;1.88;;
53513;SDS011;39768;54.148;12.174;2022-10-04T19:56:37;1.08;;;1.02;;
53513;SDS011;39768;54.148;12.174;2022-10-04T20:00:47;1.63;;;1.52;;
53513;SDS011;39768;54.148;12.174;2022-10-04T20:04:49;2.83;;;1.05;;
53513;SDS011;39768;54.148;12.174;2022-10-04T20:17:05;1.05;;;1.02;;
53513;SDS011;39768;54.148;12.174;2022-10-04T20:21:07;2.08;;;1.42;;
53513;SDS011;39768;54.148;12.174;2022-10-04T20:25:10;1.73;;;0.90;;
53513;SDS011;39768;54.148;12.174;2022-10-04T20:29:18;2.20;;;1.30;;
53513;SDS011;39768;54.148;12.174;2022-10-04T20:41:44;3.08;;;1.00;;
53513;SDS011;39768;54.148;12.174;2022-10-04T20:46:11;0.90;;;0.90;;
53513;SDS011;39768;54.148;12.174;2022-10-04T20:54:31;1.00;;;0.80;;
53513;SDS011;39768;54.148;12.174;2022-10-04T20:58:33;1.20;;;1.10;;
53513;SDS011;39768;54.148;12.174;2022-10-04T21:02:35;2.17;;;1.42;;
53513;SDS011;39768;54.148;12.174;2022-10-04T21:06:50;2.17;;;0.93;;
53513;SDS011;39768;54.148;12.174;2022-10-04T21:11:05;2.00;;;1.17;;
53513;SDS011;39768;54.148;12.174;2022-10-04T21:23:33;3.58;;;1.27;;
53513;SDS011;39768;54.148;12.174;2022-10-04T21:27:36;1.27;;;0.98;;
53513;SDS011;39768;54.148;12.174;2022-10-04T21:31:39;1.10;;;1.10;;
53513;SDS011;39768;54.148;12.174;2022-10-04T21:35:41;5.22;;;1.38;;
53513;SDS011;39768;54.148;12.174;2022-10-04T21:39:43;1.25;;;1.15;;
53513;SDS011;39768;54.148;12.174;2022-10-04T21:43:45;1.88;;;1.52;;
53513;SDS011;39768;54.148;12.174;2022-10-04T21:47:46;1.00;;;0.98;;
53513;SDS011;39768;54.148;12.174;2022-10-04T21:51:47;1.73;;;1.27;;
53513;SDS011;39768;54.148;12.174;2022-10-04T21:55:49;5.18;;;1.38;;
53513;SDS011;39768;54.148;12.174;2022-10-04T21:59:50;0.95;;;0.93;;
53513;SDS011;39768;54.148;12.174;2022-10-04T22:03:52;3.78;;;1.13;;
53513;SDS011;39768;54.148;12.174;2022-10-04T22:07:54;3.63;;;0.85;;
53513;SDS011;39768;54.148;12.174;2022-10-04T22:11:55;1.80;;;0.90;;
53513;SDS011;39768;54.148;12.174;2022-10-04T22:15:57;1.95;;;1.23;;
53513;SDS011;39768;54.148;12.174;2022-10-04T22:19:58;2.65;;;1.20;;
53513;SDS011;39768;54.148;12.174;2022-10-04T22:24:01;1.00;;;0.85;;
53513;SDS011;39768;54.148;12.174;2022-10-04T22:28:12;4.07;;;1.08;;
53513;SDS011;39768;54.148;12.174;2022-10-04T22:32:20;1.83;;;1.35;;
53513;SDS011;39768;54.148;12.174;2022-10-04T22:36:35;5.40;;;1.45;;
53513;SDS011;39768;54.148;12.174;2022-10-04T22:40:37;6.82;;;1.40;;
53513;SDS011;39768;54.148;12.174;2022-10-04T22:44:39;2.95;;;1.15;;
53513;SDS011;39768;54.148;12.174;2022-10-04T22:48:42;7.32;;;1.55;;
53513;SDS011;39768;54.148;12.174;2022-10-04T22:52:48;3.15;;;1.50;;
53513;SDS011;39768;54.148;12.174;2022-10-04T22:56:50;9.10;;;1.33;;
53513;SDS011;39768;54.148;12.174;2022-10-04T23:00:53;5.93;;;1.00;;
53513;SDS011;39768;54.148;12.174;2022-10-04T23:04:55;1.20;;;1.10;;
53513;SDS011;39768;54.148;12.174;2022-10-04T23:09:01;1.50;;;1.17;;
53513;SDS011;39768;54.148;12.174;2022-10-04T23:13:02;2.22;;;1.42;;
53513;SDS011;39768;54.148;12.174;2022-10-04T23:17:21;1.40;;;1.15;;
53513;SDS011;39768;54.148;12.174;2022-10-04T23:21:24;1.63;;;1.38;;
53513;SDS011;39768;54.148;12.174;2022-10-04T23:25:27;2.20;;;1.25;;
53513;SDS011;39768;54.148;12.174;2022-10-04T23:29:30;1.92;;;1.25;;
53513;SDS011;39768;54.148;12.174;2022-10-04T23:33:34;5.43;;;1.30;;
53513;SDS011;39768;54.148;12.174;2022-10-04T23:37:36;1.55;;;1.35;;
53513;SDS011;39768;54.148;12.174;2022-10-04T23:41:37;1.05;;;0.90;;
53513;SDS011;39768;54.148;12.174;2022-10-04T23:45:39;2.63;;;1.60;;
53513;SDS011;39768;54.148;12.174;2022-10-04T23:49:44;1.70;;;1.25;;
53513;SDS011;39768;54.148;12.174;2022-10-04T23:53:48;2.38;;;1.42;;
53513;SDS011;39768;54.148;12.174;2022-10-04T23:57:50;2.10;;;1.63;;
